Terminal Aerodrome Forecast
Issued by NWS Green Bay, WI

Home | Current Version | Previous Version | Text Only | Print | Product List | Glossary On
Versions: 1 2 3 4 5 6 7 8 9 10 11 12 13 14 15 16 17 18 19 20 21 22 23 24 25 26 27 28 29 30 31 32 33 34 35 36 37
000
FTUS43 KGRB 281100
TAFGRB
TAF
KGRB 281122Z 2812/2912 35009KT P6SM SKC
     FM281500 33010G16KT P6SM SCT050
      TEMPO 2817/2821 BKN060
     FM282100 33009KT P6SM FEW050 BKN100=

USA.gov is the U.S. government's official web portal to all federal, state and local government web resources and services.